sensor_id;sensor_type;location;lat;lon;timestamp;P1;durP1;ratioP1;P2;durP2;ratioP2
45970;SDS011;31681;48.982;8.394;2023-11-21T00:00:46;6.53;;;1.35;;
45970;SDS011;31681;48.982;8.394;2023-11-21T00:03:12;2.80;;;1.40;;
45970;SDS011;31681;48.982;8.394;2023-11-21T00:05:40;4.47;;;1.17;;
45970;SDS011;31681;48.982;8.394;2023-11-21T00:08:06;3.38;;;1.30;;
45970;SDS011;31681;48.982;8.394;2023-11-21T00:10:31;4.70;;;1.50;;
45970;SDS011;31681;48.982;8.394;2023-11-21T00:12:57;3.83;;;1.40;;
45970;SDS011;31681;48.982;8.394;2023-11-21T00:15:22;4.47;;;1.23;;
45970;SDS011;31681;48.982;8.394;2023-11-21T00:17:47;6.68;;;1.50;;
45970;SDS011;31681;48.982;8.394;2023-11-21T00:20:13;5.07;;;1.30;;
45970;SDS011;31681;48.982;8.394;2023-11-21T00:22:38;4.22;;;1.30;;
45970;SDS011;31681;48.982;8.394;2023-11-21T00:25:05;3.15;;;1.23;;
45970;SDS011;31681;48.982;8.394;2023-11-21T00:27:30;8.25;;;1.88;;
45970;SDS011;31681;48.982;8.394;2023-11-21T00:29:56;2.42;;;1.27;;
45970;SDS011;31681;48.982;8.394;2023-11-21T00:32:21;3.83;;;1.50;;
45970;SDS011;31681;48.982;8.394;2023-11-21T00:34:47;4.38;;;1.30;;
45970;SDS011;31681;48.982;8.394;2023-11-21T00:37:12;3.60;;;1.00;;
45970;SDS011;31681;48.982;8.394;2023-11-21T00:39:38;2.47;;;0.98;;
45970;SDS011;31681;48.982;8.394;2023-11-21T00:42:05;5.25;;;1.33;;
45970;SDS011;31681;48.982;8.394;2023-11-21T00:44:30;3.10;;;1.40;;
45970;SDS011;31681;48.982;8.394;2023-11-21T00:46:56;4.50;;;1.30;;
45970;SDS011;31681;48.982;8.394;2023-11-21T00:49:21;3.10;;;1.25;;
45970;SDS011;31681;48.982;8.394;2023-11-21T00:51:48;3.80;;;1.40;;
45970;SDS011;31681;48.982;8.394;2023-11-21T00:54:13;5.35;;;1.40;;
45970;SDS011;31681;48.982;8.394;2023-11-21T00:56:39;5.25;;;1.27;;
45970;SDS011;31681;48.982;8.394;2023-11-21T00:59:05;2.95;;;1.00;;
45970;SDS011;31681;48.982;8.394;2023-11-21T01:01:30;5.82;;;1.17;;
45970;SDS011;31681;48.982;8.394;2023-11-21T01:03:56;5.82;;;1.88;;
45970;SDS011;31681;48.982;8.394;2023-11-21T01:06:21;3.72;;;1.08;;
45970;SDS011;31681;48.982;8.394;2023-11-21T01:08:47;3.67;;;1.30;;
45970;SDS011;31681;48.982;8.394;2023-11-21T01:11:12;4.68;;;1.20;;
45970;SDS011;31681;48.982;8.394;2023-11-21T01:13:41;3.80;;;1.40;;
45970;SDS011;31681;48.982;8.394;2023-11-21T01:16:07;4.47;;;1.17;;
45970;SDS011;31681;48.982;8.394;2023-11-21T01:18:33;4.75;;;1.40;;
45970;SDS011;31681;48.982;8.394;2023-11-21T01:21:00;5.07;;;1.30;;
45970;SDS011;31681;48.982;8.394;2023-11-21T01:23:26;2.60;;;1.10;;
45970;SDS011;31681;48.982;8.394;2023-11-21T01:25:52;6.00;;;1.33;;
45970;SDS011;31681;48.982;8.394;2023-11-21T01:28:20;3.67;;;1.30;;
45970;SDS011;31681;48.982;8.394;2023-11-21T01:30:45;3.13;;;1.35;;
45970;SDS011;31681;48.982;8.394;2023-11-21T01:33:11;4.28;;;0.90;;
45970;SDS011;31681;48.982;8.394;2023-11-21T01:35:36;2.85;;;1.13;;
45970;SDS011;31681;48.982;8.394;2023-11-21T01:38:04;2.47;;;1.10;;
45970;SDS011;31681;48.982;8.394;2023-11-21T01:40:29;3.45;;;0.98;;
45970;SDS011;31681;48.982;8.394;2023-11-21T01:42:56;2.28;;;1.15;;
45970;SDS011;31681;48.982;8.394;2023-11-21T01:45:25;4.15;;;1.08;;
45970;SDS011;31681;48.982;8.394;2023-11-21T01:47:51;4.57;;;1.20;;
45970;SDS011;31681;48.982;8.394;2023-11-21T01:50:16;6.18;;;1.73;;
45970;SDS011;31681;48.982;8.394;2023-11-21T01:52:45;4.00;;;1.33;;
45970;SDS011;31681;48.982;8.394;2023-11-21T01:55:10;2.50;;;1.13;;
45970;SDS011;31681;48.982;8.394;2023-11-21T01:57:37;6.88;;;1.60;;
45970;SDS011;31681;48.982;8.394;2023-11-21T02:00:03;3.60;;;1.20;;
45970;SDS011;31681;48.982;8.394;2023-11-21T02:02:47;6.03;;;1.15;;
45970;SDS011;31681;48.982;8.394;2023-11-21T02:05:13;7.72;;;1.20;;
45970;SDS011;31681;48.982;8.394;2023-11-21T02:07:39;2.75;;;1.17;;
45970;SDS011;31681;48.982;8.394;2023-11-21T02:10:05;4.43;;;1.20;;
45970;SDS011;31681;48.982;8.394;2023-11-21T02:12:31;2.05;;;1.02;;
45970;SDS011;31681;48.982;8.394;2023-11-21T02:14:56;2.88;;;1.00;;
45970;SDS011;31681;48.982;8.394;2023-11-21T02:17:21;3.08;;;1.25;;
45970;SDS011;31681;48.982;8.394;2023-11-21T02:19:47;4.55;;;1.50;;
45970;SDS011;31681;48.982;8.394;2023-11-21T02:22:16;5.20;;;1.05;;
45970;SDS011;31681;48.982;8.394;2023-11-21T02:24:42;3.88;;;1.60;;
45970;SDS011;31681;48.982;8.394;2023-11-21T02:27:07;1.08;;;0.93;;
45970;SDS011;31681;48.982;8.394;2023-11-21T02:29:33;3.67;;;1.00;;
45970;SDS011;31681;48.982;8.394;2023-11-21T02:31:58;2.40;;;1.52;;
45970;SDS011;31681;48.982;8.394;2023-11-21T02:34:24;5.22;;;1.50;;
45970;SDS011;31681;48.982;8.394;2023-11-21T02:36:50;4.47;;;1.30;;
45970;SDS011;31681;48.982;8.394;2023-11-21T02:39:16;2.95;;;1.10;;
45970;SDS011;31681;48.982;8.394;2023-11-21T02:41:42;3.17;;;1.17;;
45970;SDS011;31681;48.982;8.394;2023-11-21T02:44:07;2.88;;;1.10;;
45970;SDS011;31681;48.982;8.394;2023-11-21T02:46:33;4.70;;;1.27;;
45970;SDS011;31681;48.982;8.394;2023-11-21T02:48:59;3.63;;;1.65;;
45970;SDS011;31681;48.982;8.394;2023-11-21T02:51:27;2.55;;;1.15;;
45970;SDS011;31681;48.982;8.394;2023-11-21T02:53:52;2.13;;;1.42;;
45970;SDS011;31681;48.982;8.394;2023-11-21T02:56:17;4.03;;;1.30;;
45970;SDS011;31681;48.982;8.394;2023-11-21T02:58:44;3.15;;;1.48;;
45970;SDS011;31681;48.982;8.394;2023-11-21T03:01:09;3.08;;;1.02;;
45970;SDS011;31681;48.982;8.394;2023-11-21T03:03:36;1.60;;;1.00;;
45970;SDS011;31681;48.982;8.394;2023-11-21T03:06:05;2.53;;;1.10;;
45970;SDS011;31681;48.982;8.394;2023-11-21T03:08:31;3.67;;;1.30;;
45970;SDS011;31681;48.982;8.394;2023-11-21T03:10:57;6.45;;;1.38;;
45970;SDS011;31681;48.982;8.394;2023-11-21T03:13:22;1.65;;;0.95;;
45970;SDS011;31681;48.982;8.394;2023-11-21T03:15:48;3.05;;;1.60;;
45970;SDS011;31681;48.982;8.394;2023-11-21T03:18:13;2.75;;;1.30;;
45970;SDS011;31681;48.982;8.394;2023-11-21T03:20:38;4.32;;;1.20;;
45970;SDS011;31681;48.982;8.394;2023-11-21T03:23:04;4.40;;;1.30;;
45970;SDS011;31681;48.982;8.394;2023-11-21T03:25:30;4.43;;;1.30;;
45970;SDS011;31681;48.982;8.394;2023-11-21T03:27:56;2.45;;;1.10;;
45970;SDS011;31681;48.982;8.394;2023-11-21T03:30:21;2.58;;;1.08;;
45970;SDS011;31681;48.982;8.394;2023-11-21T03:32:46;4.50;;;1.42;;
45970;SDS011;31681;48.982;8.394;2023-11-21T03:35:13;5.28;;;1.55;;
45970;SDS011;31681;48.982;8.394;2023-11-21T03:37:39;3.65;;;1.10;;
45970;SDS011;31681;48.982;8.394;2023-11-21T03:40:06;7.78;;;1.50;;
45970;SDS011;31681;48.982;8.394;2023-11-21T03:42:33;4.15;;;1.20;;
45970;SDS011;31681;48.982;8.394;2023-11-21T03:44:58;6.40;;;1.30;;
45970;SDS011;31681;48.982;8.394;2023-11-21T03:47:24;3.40;;;1.20;;
45970;SDS011;31681;48.982;8.394;2023-11-21T03:49:49;2.63;;;1.17;;
45970;SDS011;31681;48.982;8.394;2023-11-21T03:52:15;3.22;;;1.10;;
45970;SDS011;31681;48.982;8.394;2023-11-21T03:54:40;2.15;;;1.27;;
45970;SDS011;31681;48.982;8.394;2023-11-21T03:57:07;4.50;;;1.30;;
45970;SDS011;31681;48.982;8.394;2023-11-21T03:59:32;4.53;;;1.50;;
45970;SDS011;31681;48.982;8.394;2023-11-21T04:01:58;3.65;;;1.10;;
45970;SDS011;31681;48.982;8.394;2023-11-21T04:04:23;3.03;;;1.20;;
45970;SDS011;31681;48.982;8.394;2023-11-21T04:06:48;4.57;;;1.30;;
45970;SDS011;31681;48.982;8.394;2023-11-21T04:09:14;1.25;;;0.85;;
45970;SDS011;31681;48.982;8.394;2023-11-21T04:11:39;2.88;;;1.05;;
45970;SDS011;31681;48.982;8.394;2023-11-21T04:14:04;5.38;;;1.30;;
45970;SDS011;31681;48.982;8.394;2023-11-21T04:16:29;2.25;;;1.13;;
45970;SDS011;31681;48.982;8.394;2023-11-21T04:18:55;2.90;;;1.13;;
45970;SDS011;31681;48.982;8.394;2023-11-21T04:21:20;3.78;;;1.10;;
45970;SDS011;31681;48.982;8.394;2023-11-21T04:23:46;4.10;;;1.13;;
45970;SDS011;31681;48.982;8.394;2023-11-21T04:26:12;1.85;;;1.17;;
45970;SDS011;31681;48.982;8.394;2023-11-21T04:28:37;3.63;;;1.23;;
45970;SDS011;31681;48.982;8.394;2023-11-21T04:31:02;3.42;;;1.20;;
45970;SDS011;31681;48.982;8.394;2023-11-21T04:33:28;2.83;;;1.33;;
45970;SDS011;31681;48.982;8.394;2023-11-21T04:35:54;4.03;;;1.20;;
45970;SDS011;31681;48.982;8.394;2023-11-21T04:38:19;4.55;;;1.60;;
45970;SDS011;31681;48.982;8.394;2023-11-21T04:40:44;4.40;;;1.38;;
45970;SDS011;31681;48.982;8.394;2023-11-21T04:43:09;4.85;;;1.70;;
45970;SDS011;31681;48.982;8.394;2023-11-21T04:45:35;4.93;;;1.40;;
45970;SDS011;31681;48.982;8.394;2023-11-21T04:48:00;4.53;;;1.83;;
45970;SDS011;31681;48.982;8.394;2023-11-21T04:50:25;2.88;;;1.45;;
45970;SDS011;31681;48.982;8.394;2023-11-21T04:52:54;6.18;;;1.70;;
45970;SDS011;31681;48.982;8.394;2023-11-21T04:55:19;2.65;;;1.20;;
45970;SDS011;31681;48.982;8.394;2023-11-21T04:57:44;3.53;;;1.27;;
45970;SDS011;31681;48.982;8.394;2023-11-21T05:00:10;6.03;;;2.03;;
45970;SDS011;31681;48.982;8.394;2023-11-21T05:02:36;2.05;;;1.33;;
45970;SDS011;31681;48.982;8.394;2023-11-21T05:05:03;3.95;;;1.50;;
45970;SDS011;31681;48.982;8.394;2023-11-21T05:07:30;6.38;;;2.00;;
45970;SDS011;31681;48.982;8.394;2023-11-21T05:09:56;7.97;;;2.58;;
45970;SDS011;31681;48.982;8.394;2023-11-21T05:12:21;2.58;;;1.50;;
45970;SDS011;31681;48.982;8.394;2023-11-21T05:14:48;2.83;;;1.42;;
45970;SDS011;31681;48.982;8.394;2023-11-21T05:17:13;4.57;;;1.80;;
45970;SDS011;31681;48.982;8.394;2023-11-21T05:19:39;5.57;;;2.05;;
45970;SDS011;31681;48.982;8.394;2023-11-21T05:22:05;5.97;;;1.98;;
45970;SDS011;31681;48.982;8.394;2023-11-21T05:24:31;5.90;;;2.88;;
45970;SDS011;31681;48.982;8.394;2023-11-21T05:26:56;4.47;;;2.38;;
45970;SDS011;31681;48.982;8.394;2023-11-21T05:29:22;20.15;;;10.48;;
45970;SDS011;31681;48.982;8.394;2023-11-21T05:31:47;7.65;;;5.15;;
45970;SDS011;31681;48.982;8.394;2023-11-21T05:34:13;5.32;;;1.95;;
45970;SDS011;31681;48.982;8.394;2023-11-21T05:36:38;5.95;;;1.98;;
45970;SDS011;31681;48.982;8.394;2023-11-21T05:39:04;4.82;;;2.08;;
45970;SDS011;31681;48.982;8.394;2023-11-21T05:41:29;5.75;;;1.77;;
45970;SDS011;31681;48.982;8.394;2023-11-21T05:44:08;3.05;;;1.98;;
45970;SDS011;31681;48.982;8.394;2023-11-21T05:46:34;3.38;;;2.15;;
45970;SDS011;31681;48.982;8.394;2023-11-21T05:48:59;3.80;;;2.03;;
45970;SDS011;31681;48.982;8.394;2023-11-21T05:51:25;4.85;;;2.00;;
45970;SDS011;31681;48.982;8.394;2023-11-21T05:53:50;4.03;;;2.42;;
45970;SDS011;31681;48.982;8.394;2023-11-21T05:56:15;4.07;;;2.28;;
45970;SDS011;31681;48.982;8.394;2023-11-21T05:58:42;3.08;;;2.75;;
45970;SDS011;31681;48.982;8.394;2023-11-21T06:01:07;3.33;;;2.60;;
45970;SDS011;31681;48.982;8.394;2023-11-21T06:03:35;2.35;;;2.00;;
45970;SDS011;31681;48.982;8.394;2023-11-21T06:06:00;6.07;;;2.20;;
45970;SDS011;31681;48.982;8.394;2023-11-21T06:08:25;4.15;;;2.00;;
45970;SDS011;31681;48.982;8.394;2023-11-21T06:10:51;4.97;;;2.22;;
45970;SDS011;31681;48.982;8.394;2023-11-21T06:13:16;5.55;;;2.80;;
45970;SDS011;31681;48.982;8.394;2023-11-21T06:15:41;3.20;;;2.08;;
45970;SDS011;31681;48.982;8.394;2023-11-21T06:18:07;2.65;;;2.03;;
45970;SDS011;31681;48.982;8.394;2023-11-21T06:20:35;2.80;;;2.20;;
45970;SDS011;31681;48.982;8.394;2023-11-21T06:23:02;3.70;;;1.90;;
45970;SDS011;31681;48.982;8.394;2023-11-21T06:25:28;2.80;;;1.90;;
45970;SDS011;31681;48.982;8.394;2023-11-21T06:27:54;3.97;;;1.83;;
45970;SDS011;31681;48.982;8.394;2023-11-21T06:30:19;2.42;;;2.20;;
45970;SDS011;31681;48.982;8.394;2023-11-21T06:32:45;2.42;;;2.13;;
45970;SDS011;31681;48.982;8.394;2023-11-21T06:35:13;3.38;;;2.10;;
45970;SDS011;31681;48.982;8.394;2023-11-21T06:37:39;3.22;;;2.17;;
45970;SDS011;31681;48.982;8.394;2023-11-21T06:40:04;3.83;;;2.60;;
45970;SDS011;31681;48.982;8.394;2023-11-21T06:42:30;3.10;;;2.35;;
45970;SDS011;31681;48.982;8.394;2023-11-21T06:44:55;4.47;;;2.75;;
45970;SDS011;31681;48.982;8.394;2023-11-21T06:47:24;4.15;;;2.63;;
45970;SDS011;31681;48.982;8.394;2023-11-21T06:49:54;4.95;;;2.63;;
45970;SDS011;31681;48.982;8.394;2023-11-21T06:52:20;4.43;;;2.70;;
45970;SDS011;31681;48.982;8.394;2023-11-21T06:54:45;5.30;;;2.90;;
45970;SDS011;31681;48.982;8.394;2023-11-21T06:57:12;7.00;;;3.45;;
45970;SDS011;31681;48.982;8.394;2023-11-21T06:59:37;8.75;;;3.20;;
45970;SDS011;31681;48.982;8.394;2023-11-21T07:02:03;5.78;;;3.33;;
45970;SDS011;31681;48.982;8.394;2023-11-21T07:04:29;5.07;;;3.80;;
45970;SDS011;31681;48.982;8.394;2023-11-21T07:06:55;5.95;;;3.95;;
45970;SDS011;31681;48.982;8.394;2023-11-21T07:09:21;8.25;;;3.55;;
45970;SDS011;31681;48.982;8.394;2023-11-21T07:11:51;5.53;;;3.22;;
45970;SDS011;31681;48.982;8.394;2023-11-21T07:14:16;6.47;;;3.63;;
45970;SDS011;31681;48.982;8.394;2023-11-21T07:16:44;5.90;;;4.20;;
45970;SDS011;31681;48.982;8.394;2023-11-21T07:19:10;7.88;;;4.57;;
45970;SDS011;31681;48.982;8.394;2023-11-21T07:21:37;6.82;;;4.07;;
45970;SDS011;31681;48.982;8.394;2023-11-21T07:24:03;8.73;;;4.65;;
45970;SDS011;31681;48.982;8.394;2023-11-21T07:26:29;8.35;;;4.32;;
45970;SDS011;31681;48.982;8.394;2023-11-21T07:28:54;7.85;;;4.43;;
45970;SDS011;31681;48.982;8.394;2023-11-21T07:31:20;8.13;;;4.57;;
45970;SDS011;31681;48.982;8.394;2023-11-21T07:33:46;9.23;;;4.68;;
45970;SDS011;31681;48.982;8.394;2023-11-21T07:36:12;9.80;;;5.05;;
45970;SDS011;31681;48.982;8.394;2023-11-21T07:38:37;8.23;;;4.88;;
45970;SDS011;31681;48.982;8.394;2023-11-21T07:41:03;7.97;;;4.68;;
45970;SDS011;31681;48.982;8.394;2023-11-21T07:43:28;7.38;;;4.50;;
45970;SDS011;31681;48.982;8.394;2023-11-21T07:46:00;7.32;;;4.93;;
45970;SDS011;31681;48.982;8.394;2023-11-21T07:48:25;8.07;;;4.72;;
45970;SDS011;31681;48.982;8.394;2023-11-21T07:50:51;7.15;;;4.95;;
45970;SDS011;31681;48.982;8.394;2023-11-21T07:53:16;8.05;;;4.75;;
45970;SDS011;31681;48.982;8.394;2023-11-21T07:55:41;6.80;;;4.40;;
45970;SDS011;31681;48.982;8.394;2023-11-21T07:58:07;9.43;;;4.32;;
45970;SDS011;31681;48.982;8.394;2023-11-21T08:00:32;6.80;;;4.95;;
45970;SDS011;31681;48.982;8.394;2023-11-21T08:02:58;9.27;;;5.28;;
45970;SDS011;31681;48.982;8.394;2023-11-21T08:05:23;6.63;;;4.88;;
45970;SDS011;31681;48.982;8.394;2023-11-21T08:07:49;7.03;;;4.50;;
45970;SDS011;31681;48.982;8.394;2023-11-21T08:10:15;5.70;;;3.83;;
45970;SDS011;31681;48.982;8.394;2023-11-21T08:12:41;7.25;;;4.00;;
45970;SDS011;31681;48.982;8.394;2023-11-21T08:15:07;5.95;;;4.10;;
45970;SDS011;31681;48.982;8.394;2023-11-21T08:17:34;5.82;;;4.35;;
45970;SDS011;31681;48.982;8.394;2023-11-21T08:20:00;7.10;;;4.25;;
45970;SDS011;31681;48.982;8.394;2023-11-21T08:22:25;9.43;;;5.15;;
45970;SDS011;31681;48.982;8.394;2023-11-21T08:24:51;8.70;;;5.07;;
45970;SDS011;31681;48.982;8.394;2023-11-21T08:27:17;6.53;;;4.38;;
45970;SDS011;31681;48.982;8.394;2023-11-21T08:29:43;8.50;;;4.95;;
45970;SDS011;31681;48.982;8.394;2023-11-21T08:32:08;9.45;;;4.57;;
45970;SDS011;31681;48.982;8.394;2023-11-21T08:34:33;6.88;;;4.30;;
45970;SDS011;31681;48.982;8.394;2023-11-21T08:36:59;8.93;;;5.13;;
45970;SDS011;31681;48.982;8.394;2023-11-21T08:39:25;8.93;;;5.85;;
45970;SDS011;31681;48.982;8.394;2023-11-21T08:41:52;10.15;;;5.68;;
45970;SDS011;31681;48.982;8.394;2023-11-21T08:44:17;12.23;;;6.90;;
45970;SDS011;31681;48.982;8.394;2023-11-21T08:46:46;14.35;;;6.75;;
45970;SDS011;31681;48.982;8.394;2023-11-21T08:49:12;14.32;;;7.10;;
45970;SDS011;31681;48.982;8.394;2023-11-21T08:51:37;16.63;;;8.00;;
45970;SDS011;31681;48.982;8.394;2023-11-21T08:54:03;14.98;;;8.20;;
45970;SDS011;31681;48.982;8.394;2023-11-21T08:56:32;11.80;;;7.32;;
45970;SDS011;31681;48.982;8.394;2023-11-21T08:58:57;15.98;;;8.27;;
45970;SDS011;31681;48.982;8.394;2023-11-21T09:01:23;14.82;;;7.80;;
45970;SDS011;31681;48.982;8.394;2023-11-21T09:03:48;12.50;;;7.05;;
45970;SDS011;31681;48.982;8.394;2023-11-21T09:06:15;13.23;;;7.93;;
45970;SDS011;31681;48.982;8.394;2023-11-21T09:08:40;12.98;;;7.28;;
45970;SDS011;31681;48.982;8.394;2023-11-21T09:11:07;11.48;;;7.72;;
45970;SDS011;31681;48.982;8.394;2023-11-21T09:13:33;11.50;;;7.28;;
45970;SDS011;31681;48.982;8.394;2023-11-21T09:15:58;13.20;;;7.70;;
45970;SDS011;31681;48.982;8.394;2023-11-21T09:18:23;11.48;;;7.18;;
45970;SDS011;31681;48.982;8.394;2023-11-21T09:20:49;14.48;;;7.43;;
45970;SDS011;31681;48.982;8.394;2023-11-21T09:23:14;10.65;;;6.78;;
45970;SDS011;31681;48.982;8.394;2023-11-21T09:25:40;10.98;;;7.40;;
45970;SDS011;31681;48.982;8.394;2023-11-21T09:28:06;13.13;;;7.70;;
45970;SDS011;31681;48.982;8.394;2023-11-21T09:30:34;12.48;;;7.65;;
45970;SDS011;31681;48.982;8.394;2023-11-21T09:33:01;12.50;;;7.43;;
45970;SDS011;31681;48.982;8.394;2023-11-21T09:35:29;11.68;;;7.60;;
45970;SDS011;31681;48.982;8.394;2023-11-21T09:37:54;11.75;;;7.65;;
45970;SDS011;31681;48.982;8.394;2023-11-21T09:40:21;12.05;;;7.65;;
45970;SDS011;31681;48.982;8.394;2023-11-21T09:47:45;12.32;;;7.75;;
45970;SDS011;31681;48.982;8.394;2023-11-21T09:50:11;12.50;;;7.75;;
45970;SDS011;31681;48.982;8.394;2023-11-21T09:53:02;14.75;;;7.75;;
45970;SDS011;31681;48.982;8.394;2023-11-21T09:55:32;13.52;;;7.88;;
45970;SDS011;31681;48.982;8.394;2023-11-21T09:58:01;13.00;;;7.53;;
45970;SDS011;31681;48.982;8.394;2023-11-21T10:00:27;12.57;;;7.55;;
45970;SDS011;31681;48.982;8.394;2023-11-21T10:02:54;13.27;;;7.80;;
45970;SDS011;31681;48.982;8.394;2023-11-21T10:05:21;13.82;;;8.48;;
45970;SDS011;31681;48.982;8.394;2023-11-21T10:07:48;12.00;;;8.00;;
45970;SDS011;31681;48.982;8.394;2023-11-21T10:10:13;10.73;;;7.45;;
45970;SDS011;31681;48.982;8.394;2023-11-21T10:12:41;14.27;;;8.65;;
45970;SDS011;31681;48.982;8.394;2023-11-21T10:15:07;14.48;;;8.55;;
45970;SDS011;31681;48.982;8.394;2023-11-21T10:17:35;13.75;;;8.15;;
45970;SDS011;31681;48.982;8.394;2023-11-21T10:20:08;10.77;;;7.22;;
45970;SDS011;31681;48.982;8.394;2023-11-21T10:22:40;11.30;;;7.88;;
45970;SDS011;31681;48.982;8.394;2023-11-21T10:25:09;13.90;;;7.72;;
45970;SDS011;31681;48.982;8.394;2023-11-21T10:27:39;12.02;;;7.25;;
45970;SDS011;31681;48.982;8.394;2023-11-21T10:30:05;11.48;;;7.22;;
45970;SDS011;31681;48.982;8.394;2023-11-21T10:32:31;12.02;;;7.00;;
45970;SDS011;31681;48.982;8.394;2023-11-21T10:34:58;11.90;;;6.70;;
45970;SDS011;31681;48.982;8.394;2023-11-21T10:37:25;10.73;;;6.43;;
45970;SDS011;31681;48.982;8.394;2023-11-21T10:39:56;8.35;;;6.03;;
45970;SDS011;31681;48.982;8.394;2023-11-21T10:42:22;7.65;;;5.13;;
45970;SDS011;31681;48.982;8.394;2023-11-21T10:44:49;9.00;;;6.13;;
45970;SDS011;31681;48.982;8.394;2023-11-21T10:47:15;9.45;;;6.22;;
45970;SDS011;31681;48.982;8.394;2023-11-21T10:49:41;7.15;;;4.95;;
45970;SDS011;31681;48.982;8.394;2023-11-21T10:52:07;7.50;;;5.93;;
45970;SDS011;31681;48.982;8.394;2023-11-21T10:54:33;8.93;;;5.55;;
45970;SDS011;31681;48.982;8.394;2023-11-21T10:57:01;8.50;;;5.32;;
45970;SDS011;31681;48.982;8.394;2023-11-21T10:59:28;6.50;;;5.10;;
45970;SDS011;31681;48.982;8.394;2023-11-21T11:01:54;7.32;;;5.20;;
45970;SDS011;31681;48.982;8.394;2023-11-21T11:04:19;8.60;;;5.10;;
45970;SDS011;31681;48.982;8.394;2023-11-21T11:06:54;7.45;;;5.60;;
45970;SDS011;31681;48.982;8.394;2023-11-21T11:09:22;7.32;;;5.15;;
45970;SDS011;31681;48.982;8.394;2023-11-21T11:11:48;6.88;;;5.38;;
45970;SDS011;31681;48.982;8.394;2023-11-21T11:14:14;7.43;;;5.80;;
45970;SDS011;31681;48.982;8.394;2023-11-21T11:16:40;9.00;;;5.32;;
45970;SDS011;31681;48.982;8.394;2023-11-21T11:19:09;7.00;;;5.07;;
45970;SDS011;31681;48.982;8.394;2023-11-21T11:21:43;7.32;;;5.60;;
45970;SDS011;31681;48.982;8.394;2023-11-21T11:24:29;8.18;;;6.05;;
45970;SDS011;31681;48.982;8.394;2023-11-21T11:37:19;10.43;;;5.93;;
45970;SDS011;31681;48.982;8.394;2023-11-21T11:39:48;8.93;;;5.70;;
45970;SDS011;31681;48.982;8.394;2023-11-21T11:42:16;6.72;;;5.70;;
45970;SDS011;31681;48.982;8.394;2023-11-21T11:47:21;6.63;;;4.97;;
45970;SDS011;31681;48.982;8.394;2023-11-21T11:49:57;8.13;;;5.90;;
45970;SDS011;31681;48.982;8.394;2023-11-21T11:52:37;6.80;;;5.35;;
45970;SDS011;31681;48.982;8.394;2023-11-21T11:55:05;8.38;;;5.88;;
45970;SDS011;31681;48.982;8.394;2023-11-21T11:57:31;10.18;;;6.88;;
45970;SDS011;31681;48.982;8.394;2023-11-21T12:02:42;10.10;;;6.28;;
45970;SDS011;31681;48.982;8.394;2023-11-21T12:05:10;9.50;;;6.63;;
45970;SDS011;31681;48.982;8.394;2023-11-21T12:07:45;9.65;;;6.47;;
45970;SDS011;31681;48.982;8.394;2023-11-21T12:10:14;10.07;;;7.28;;
45970;SDS011;31681;48.982;8.394;2023-11-21T12:12:49;8.85;;;6.80;;
45970;SDS011;31681;48.982;8.394;2023-11-21T12:15:15;8.60;;;6.47;;
45970;SDS011;31681;48.982;8.394;2023-11-21T12:17:41;8.80;;;6.65;;
45970;SDS011;31681;48.982;8.394;2023-11-21T12:20:18;8.98;;;6.35;;
45970;SDS011;31681;48.982;8.394;2023-11-21T12:27:50;7.60;;;5.57;;
45970;SDS011;31681;48.982;8.394;2023-11-21T12:30:16;9.05;;;5.68;;
45970;SDS011;31681;48.982;8.394;2023-11-21T12:32:43;10.93;;;6.38;;
45970;SDS011;31681;48.982;8.394;2023-11-21T12:35:11;7.40;;;5.65;;
45970;SDS011;31681;48.982;8.394;2023-11-21T12:37:37;8.77;;;6.13;;
45970;SDS011;31681;48.982;8.394;2023-11-21T12:40:05;9.05;;;6.78;;
45970;SDS011;31681;48.982;8.394;2023-11-21T12:42:30;9.60;;;6.45;;
45970;SDS011;31681;48.982;8.394;2023-11-21T12:45:09;10.68;;;6.68;;
45970;SDS011;31681;48.982;8.394;2023-11-21T12:47:42;10.45;;;6.57;;
45970;SDS011;31681;48.982;8.394;2023-11-21T12:50:07;10.15;;;6.60;;
45970;SDS011;31681;48.982;8.394;2023-11-21T12:52:45;10.43;;;6.70;;
45970;SDS011;31681;48.982;8.394;2023-11-21T12:55:15;11.23;;;7.90;;
45970;SDS011;31681;48.982;8.394;2023-11-21T12:57:41;13.25;;;7.95;;
45970;SDS011;31681;48.982;8.394;2023-11-21T13:00:08;9.60;;;7.07;;
45970;SDS011;31681;48.982;8.394;2023-11-21T13:02:38;11.55;;;7.30;;
45970;SDS011;31681;48.982;8.394;2023-11-21T13:05:07;12.20;;;7.55;;
45970;SDS011;31681;48.982;8.394;2023-11-21T13:07:46;9.50;;;6.90;;
45970;SDS011;31681;48.982;8.394;2023-11-21T13:10:12;9.85;;;6.95;;
45970;SDS011;31681;48.982;8.394;2023-11-21T13:12:47;10.40;;;6.93;;
45970;SDS011;31681;48.982;8.394;2023-11-21T13:15:16;10.30;;;6.97;;
45970;SDS011;31681;48.982;8.394;2023-11-21T13:17:44;7.60;;;6.00;;
45970;SDS011;31681;48.982;8.394;2023-11-21T13:20:13;8.50;;;6.38;;
45970;SDS011;31681;48.982;8.394;2023-11-21T13:22:45;10.00;;;6.50;;
45970;SDS011;31681;48.982;8.394;2023-11-21T13:25:11;10.18;;;7.22;;
45970;SDS011;31681;48.982;8.394;2023-11-21T13:27:39;8.55;;;5.88;;
45970;SDS011;31681;48.982;8.394;2023-11-21T13:30:08;8.18;;;6.30;;
45970;SDS011;31681;48.982;8.394;2023-11-21T13:32:35;8.10;;;5.88;;
45970;SDS011;31681;48.982;8.394;2023-11-21T13:35:00;8.32;;;6.05;;
45970;SDS011;31681;48.982;8.394;2023-11-21T13:37:26;6.50;;;4.65;;
45970;SDS011;31681;48.982;8.394;2023-11-21T13:39:57;7.43;;;5.68;;
45970;SDS011;31681;48.982;8.394;2023-11-21T13:42:23;8.48;;;5.97;;
45970;SDS011;31681;48.982;8.394;2023-11-21T13:44:56;5.80;;;5.03;;
45970;SDS011;31681;48.982;8.394;2023-11-21T13:47:21;7.65;;;5.18;;
45970;SDS011;31681;48.982;8.394;2023-11-21T13:49:52;5.22;;;4.53;;
45970;SDS011;31681;48.982;8.394;2023-11-21T13:52:21;6.63;;;4.63;;
45970;SDS011;31681;48.982;8.394;2023-11-21T13:54:51;8.82;;;4.68;;
45970;SDS011;31681;48.982;8.394;2023-11-21T13:57:16;9.05;;;4.47;;
45970;SDS011;31681;48.982;8.394;2023-11-21T13:59:45;6.47;;;4.18;;
45970;SDS011;31681;48.982;8.394;2023-11-21T14:02:11;5.72;;;4.15;;
45970;SDS011;31681;48.982;8.394;2023-11-21T14:04:43;4.50;;;3.60;;
45970;SDS011;31681;48.982;8.394;2023-11-21T14:07:14;5.05;;;4.00;;
45970;SDS011;31681;48.982;8.394;2023-11-21T14:09:59;6.60;;;3.75;;
45970;SDS011;31681;48.982;8.394;2023-11-21T14:12:25;5.88;;;4.03;;
45970;SDS011;31681;48.982;8.394;2023-11-21T14:14:51;5.45;;;3.72;;
45970;SDS011;31681;48.982;8.394;2023-11-21T14:17:16;4.60;;;3.40;;
45970;SDS011;31681;48.982;8.394;2023-11-21T14:19:42;4.93;;;4.00;;
45970;SDS011;31681;48.982;8.394;2023-11-21T14:22:09;5.00;;;3.67;;
45970;SDS011;31681;48.982;8.394;2023-11-21T14:24:37;4.95;;;4.43;;
45970;SDS011;31681;48.982;8.394;2023-11-21T14:27:02;6.35;;;4.38;;
45970;SDS011;31681;48.982;8.394;2023-11-21T14:29:28;7.93;;;4.57;;
45970;SDS011;31681;48.982;8.394;2023-11-21T14:31:55;5.53;;;4.78;;
45970;SDS011;31681;48.982;8.394;2023-11-21T14:34:22;5.53;;;4.00;;
45970;SDS011;31681;48.982;8.394;2023-11-21T14:36:48;8.70;;;5.28;;
45970;SDS011;31681;48.982;8.394;2023-11-21T14:39:17;9.13;;;5.65;;
45970;SDS011;31681;48.982;8.394;2023-11-21T14:41:52;9.27;;;5.68;;
45970;SDS011;31681;48.982;8.394;2023-11-21T14:44:18;11.05;;;6.32;;
45970;SDS011;31681;48.982;8.394;2023-11-21T14:46:43;8.13;;;5.47;;
45970;SDS011;31681;48.982;8.394;2023-11-21T14:49:11;7.90;;;5.20;;
45970;SDS011;31681;48.982;8.394;2023-11-21T14:51:52;7.82;;;5.57;;
45970;SDS011;31681;48.982;8.394;2023-11-21T14:54:31;7.38;;;5.10;;
45970;SDS011;31681;48.982;8.394;2023-11-21T14:57:09;7.13;;;4.78;;
45970;SDS011;31681;48.982;8.394;2023-11-21T14:59:43;11.60;;;8.55;;
45970;SDS011;31681;48.982;8.394;2023-11-21T15:02:09;8.93;;;6.70;;
45970;SDS011;31681;48.982;8.394;2023-11-21T15:04:46;10.35;;;8.27;;
45970;SDS011;31681;48.982;8.394;2023-11-21T15:07:12;17.52;;;11.52;;
45970;SDS011;31681;48.982;8.394;2023-11-21T15:09:38;10.27;;;5.63;;